Time;durP1;ratioP1;P1;durP2;ratioP2;P2;SDS_P1;SDS_P2;PMS_P1;PMS_P2;Temp;Humidity;BMP_temperature;BMP_pressure;BME280_temperature;BME280_humidity;BME280_pressure;Samples;Min_cycle;Max_cycle;Signal;HPM_P1;HPM_P2
2023/07/02 00:00:31;;;;;;;2.30;2.17;;;;;;;;;;6101322;23;20425;-90
2023/07/02 00:03:05;;;;;;;3.40;3.10;;;18.50;99.90;;;;;;6101258;23;20464;-90
2023/07/02 00:05:32;;;;;;;3.43;3.13;;;18.60;1.00;;;;;;6101182;23;20476;-91
2023/07/02 00:08:02;;;;;;;2.90;2.37;;;;;;;;;;6101830;23;20417;-91
2023/07/02 00:10:29;;;;;;;2.50;2.30;;;18.40;1.00;;;;;;6100842;23;20402;-90
2023/07/02 00:13:00;;;;;;;3.83;3.50;;;18.20;1.00;;;;;;6101254;23;20405;-90
2023/07/02 00:15:30;;;;;;;2.23;2.03;;;18.20;1.00;;;;;;6106330;23;20390;-90
2023/07/02 00:17:57;;;;;;;2.70;2.50;;;;;;;;;;6111248;23;20414;-90
2023/07/02 00:20:24;;;;;;;2.07;1.97;;;;;;;;;;6107307;23;20798;-90
2023/07/02 00:22:54;;;;;;;2.57;2.37;;;;;;;;;;6108292;23;20450;-90
2023/07/02 00:25:21;;;;;;;3.33;2.70;;;;;;;;;;6102929;23;20802;-90
2023/07/02 00:27:49;;;;;;;2.17;2.03;;;;;;;;;;6116104;23;20426;-90
2023/07/02 00:30:19;;;;;;;3.70;2.20;;;18.30;99.90;;;;;;6122617;23;20433;-90
2023/07/02 00:32:46;;;;;;;2.20;2.10;;;;;;;;;;6110070;23;20393;-89
2023/07/02 00:35:16;;;;;;;3.10;2.70;;;18.10;1.00;;;;;;6105087;23;20444;-89
2023/07/02 00:37:43;;;;;;;2.67;2.50;;;18.40;1.00;;;;;;6125351;23;20422;-92
2023/07/02 00:40:11;;;;;;;3.70;2.60;;;17.90;1.00;;;;;;6125533;23;20406;-91
2023/07/02 00:42:38;;;;;;;3.20;2.90;;;;;;;;;;6113937;23;20497;-90
2023/07/02 00:45:06;;;;;;;3.00;2.80;;;18.10;1.00;;;;;;6104655;23;20493;-91
2023/07/02 00:47:36;;;;;;;3.00;2.70;;;18.10;1.00;;;;;;6102434;23;20409;-91
2023/07/02 00:50:04;;;;;;;3.73;2.80;;;18.10;1.00;;;;;;6102134;23;20410;-90
2023/07/02 00:52:31;;;;;;;3.87;3.17;;;18.10;1.00;;;;;;6101659;23;20445;-90
2023/07/02 00:54:58;;;;;;;3.00;2.70;;;18.00;1.00;;;;;;6114240;23;20447;-91
2023/07/02 00:57:29;;;;;;;3.17;2.97;;;;;;;;;;6122386;23;20406;-90
2023/07/02 00:59:57;;;;;;;3.30;3.10;;;17.90;1.00;;;;;;6123231;23;20406;-90
2023/07/02 01:02:31;;;;;;;3.57;3.20;;;18.20;1.00;;;;;;6115629;23;20446;-90
2023/07/02 01:05:00;;;;;;;5.20;3.70;;;18.40;64.80;;;;;;6119800;23;20401;-90
2023/07/02 01:07:27;;;;;;;3.67;3.37;;;;;;;;;;6114300;23;20398;-90
2023/07/02 01:09:55;;;;;;;3.50;3.30;;;18.10;1.00;;;;;;6119299;23;20406;-90
2023/07/02 01:12:23;;;;;;;3.93;3.63;;;18.00;1.00;;;;;;6116500;23;20446;-90
2023/07/02 01:14:54;;;;;;;4.10;3.70;;;18.10;1.00;;;;;;6109696;23;20414;-90
2023/07/02 01:17:21;;;;;;;4.83;4.40;;;18.60;1.00;;;;;;6105674;23;20394;-90
2023/07/02 01:19:58;;;;;;;4.43;3.67;;;18.30;1.00;;;;;;6107032;23;20418;-90
2023/07/02 01:22:27;;;;;;;3.73;3.53;;;18.40;1.00;;;;;;6115201;23;20453;-90
2023/07/02 01:24:55;;;;;;;4.20;3.80;;;18.10;1.00;;;;;;6113454;23;20406;-90
2023/07/02 01:27:23;;;;;;;4.43;4.13;;;;;;;;;;6112091;23;20470;-90
2023/07/02 01:29:52;;;;;;;4.50;4.20;;;18.00;40.20;;;;;;6118594;23;20402;-90
2023/07/02 01:32:20;;;;;;;4.90;4.57;;;;;;;;;;6113517;23;20430;-91
2023/07/02 01:34:48;;;;;;;5.33;4.07;;;;;;;;;;6120811;23;20429;-90
2023/07/02 01:37:17;;;;;;;5.60;5.20;;;18.00;1.00;;;;;;6115297;23;20493;-90
2023/07/02 01:39:45;;;;;;;5.57;5.10;;;;;;;;;;6124255;23;20430;-92
2023/07/02 01:42:15;;;;;;;5.27;4.77;;;18.10;8.00;;;;;;6125010;23;20502;-93
2023/07/02 01:44:43;;;;;;;5.83;5.40;;;;;;;;;;6120088;23;20402;-91
2023/07/02 01:47:10;;;;;;;5.10;4.63;;;;;;;;;;6103086;23;20933;-90
2023/07/02 01:49:38;;;;;;;5.30;4.83;;;;;;;;;;6102229;23;20410;-91
2023/07/02 01:52:06;;;;;;;5.53;4.80;;;17.90;99.90;;;;;;6100435;23;20417;-91
2023/07/02 01:54:35;;;;;;;6.07;5.47;;;17.90;99.90;;;;;;6109032;23;20418;-91
2023/07/02 01:57:09;;;;;;;6.43;4.70;;;;;;;;;;6100277;23;20402;-91
2023/07/02 01:59:37;;;;;;;6.30;5.70;;;;;;;;;;6099824;23;20393;-91
2023/07/02 02:02:04;;;;;;;6.50;6.00;;;;;;;;;;6100254;23;20438;-91
2023/07/02 02:04:31;;;;;;;6.20;5.80;;;;;;;;;;6099970;23;20468;-90
2023/07/02 02:07:00;;;;;;;7.43;6.93;;;;;;;;;;6098513;23;20505;-91
2023/07/02 02:09:28;;;;;;;6.60;6.10;;;17.90;1.00;;;;;;6099459;23;20410;-90
2023/07/02 02:11:56;;;;;;;7.43;6.73;;;17.80;3.60;;;;;;6099450;23;20422;-90
2023/07/02 02:14:23;;;;;;;6.53;5.97;;;17.50;99.90;;;;;;6100212;23;20441;-91
2023/07/02 02:16:50;;;;;;;16.83;6.70;;;;;;;;;;6100276;23;20489;-90
2023/07/02 02:19:21;;;;;;;6.10;5.70;;;17.60;99.90;;;;;;6100343;23;20398;-90
2023/07/02 02:21:48;;;;;;;7.43;6.10;;;;;;;;;;6116978;23;20430;-93
2023/07/02 02:24:16;;;;;;;6.77;5.70;;;;;;;;;;6126885;23;20513;-93
2023/07/02 02:26:44;;;;;;;5.77;5.27;;;17.70;99.90;;;;;;6120861;23;20406;-91
2023/07/02 02:29:13;;;;;;;6.27;5.87;;;17.70;1.00;;;;;;6101813;23;20410;-90
2023/07/02 02:31:48;;;;;;;6.50;5.27;;;;;;;;;;6104166;23;20441;-90
2023/07/02 02:34:16;;;;;;;6.47;5.87;;;17.60;99.90;;;;;;6103019;23;20426;-90
2023/07/02 02:36:44;;;;;;;5.17;4.77;;;;;;;;;;6103144;23;20418;-90
2023/07/02 02:39:11;;;;;;;6.43;5.50;;;;;;;;;;6101484;23;20485;-90
2023/07/02 02:41:38;;;;;;;5.20;4.77;;;;;;;;;;6104597;23;20957;-90
2023/07/02 02:44:05;;;;;;;5.40;5.00;;;17.70;1.00;;;;;;6120569;23;20453;-90
2023/07/02 02:46:34;;;;;;;5.00;4.70;;;17.70;99.90;;;;;;6103592;23;20422;-90
2023/07/02 02:49:00;;;;;;;5.50;5.10;;;17.60;1.00;;;;;;6101674;23;20460;-90
2023/07/02 02:51:27;;;;;;;6.43;5.70;;;17.70;1.00;;;;;;6107998;23;20449;-90
2023/07/02 02:54:00;;;;;;;5.93;5.10;;;17.60;1.00;;;;;;6120798;23;20386;-90
2023/07/02 02:56:30;;;;;;;5.73;4.70;;;17.60;99.90;;;;;;6112638;23;20469;-90
2023/07/02 02:58:57;;;;;;;4.50;3.90;;;;;;;;;;6110565;23;20406;-90
2023/07/02 03:01:28;;;;;;;5.23;4.57;;;;;;;;;;6115042;23;20434;-89
2023/07/02 03:03:56;;;;;;;8.70;4.50;;;17.50;1.00;;;;;;6105528;23;20763;-90
2023/07/02 03:06:23;;;;;;;7.17;5.60;;;;;;;;;;6105467;23;20414;-90
2023/07/02 03:08:50;;;;;;;6.37;5.33;;;17.60;68.60;;;;;;6112576;23;20394;-90
2023/07/02 03:11:21;;;;;;;5.00;4.60;;;17.60;1.00;;;;;;6104048;23;20429;-90
2023/07/02 03:13:48;;;;;;;4.60;4.20;;;17.50;1.00;;;;;;6101984;23;20437;-90
2023/07/02 03:16:15;;;;;;;5.27;4.87;;;16.60;99.90;;;;;;6103588;23;20465;-90
2023/07/02 03:18:42;;;;;;;5.53;4.10;;;17.50;99.90;;;;;;6111509;23;20418;-90
2023/07/02 03:21:10;;;;;;;4.97;4.60;;;17.50;1.00;;;;;;6120293;23;20474;-90
2023/07/02 03:23:37;;;;;;;5.70;5.20;;;17.50;1.00;;;;;;6100811;23;20522;-90
2023/07/02 03:26:05;;;;;;;4.10;3.80;;;;;;;;;;6100572;23;20991;-89
2023/07/02 03:28:34;;;;;;;4.40;4.03;;;;;;;;;;6100782;23;20436;-90
2023/07/02 03:31:01;;;;;;;5.00;4.70;;;17.40;1.00;;;;;;6100444;23;20434;-90
2023/07/02 03:33:28;;;;;;;4.90;4.50;;;;;;;;;;6100157;23;20497;-90
2023/07/02 03:36:00;;;;;;;4.63;4.20;;;;;;;;;;6107708;23;20413;-90
2023/07/02 03:38:28;;;;;;;4.53;4.13;;;17.40;99.90;;;;;;6106182;23;20802;-89
2023/07/02 03:40:56;;;;;;;4.30;3.90;;;;;;;;;;6101241;23;20491;-92
2023/07/02 03:43:24;;;;;;;4.70;4.30;;;17.50;16.80;;;;;;6099858;23;20433;-90
2023/07/02 03:45:52;;;;;;;4.90;4.50;;;17.50;1.00;;;;;;6100877;23;20414;-89
2023/07/02 03:48:20;;;;;;;5.13;4.63;;;17.50;1.00;;;;;;6101217;23;20413;-89
2023/07/02 03:50:47;;;;;;;4.70;4.30;;;17.50;99.90;;;;;;6120151;23;20477;-93
2023/07/02 03:53:14;;;;;;;7.30;4.70;;;17.50;22.40;;;;;;6126257;23;20390;-91
2023/07/02 03:55:43;;;;;;;4.53;4.13;;;17.50;12.30;;;;;;6126071;23;20410;-93
2023/07/02 03:58:10;;;;;;;4.57;4.17;;;;;;;;;;6125968;23;20418;-92
2023/07/02 04:00:38;;;;;;;4.03;3.73;;;;;;;;;;6105721;23;20422;-91
2023/07/02 04:03:09;;;;;;;5.73;5.10;;;17.50;99.90;;;;;;6105849;23;20456;-90
2023/07/02 04:05:36;;;;;;;5.13;4.50;;;;;;;;;;6103897;23;20377;-90
2023/07/02 04:08:04;;;;;;;4.83;4.43;;;;;;;;;;6123045;23;20398;-91
2023/07/02 04:10:31;;;;;;;4.60;4.20;;;17.40;1.00;;;;;;6123915;23;20431;-93
2023/07/02 04:12:59;;;;;;;4.23;3.83;;;16.90;1.00;;;;;;6121086;23;20417;-91
2023/07/02 04:15:26;;;;;;;5.47;4.87;;;18.60;99.90;;;;;;6104853;23;20440;-90
2023/07/02 04:17:53;;;;;;;17.10;9.73;;;17.90;99.90;;;;;;6100761;23;20424;-91
2023/07/02 04:20:25;;;;;;;10.33;8.50;;;;;;;;;;6101180;23;20446;-90
2023/07/02 04:22:52;;;;;;;26.10;17.43;;;18.70;1.00;;;;;;6100717;23;20445;-90
2023/07/02 04:25:19;;;;;;;13.60;10.90;;;;;;;;;;6118183;23;20417;-90
2023/07/02 04:27:46;;;;;;;9.90;7.50;;;17.70;1.00;;;;;;6116666;23;20413;-89
2023/07/02 04:30:15;;;;;;;22.47;17.20;;;17.50;99.90;;;;;;6103307;23;20468;-90
2023/07/02 04:32:42;;;;;;;13.10;11.80;;;;;;;;;;6102052;23;20496;-90
2023/07/02 04:35:27;;;;;;;8.03;7.20;;;17.50;99.90;;;;;;6101108;23;20406;-90
2023/07/02 04:38:04;;;;;;;;;;;;;;;;;;;;;
2023/07/02 04:40:33;;;;;;;4.67;4.27;;;;;;;;;;6108835;23;20412;-90
2023/07/02 04:43:00;;;;;;;19.10;16.03;;;17.40;99.90;;;;;;6107955;23;20708;-90
2023/07/02 04:45:35;;;;;;;44.43;33.00;;;17.60;1.00;;;;;;6110130;23;20442;-91
2023/07/02 04:48:05;;;;;;;39.90;34.23;;;17.50;1.00;;;;;;6101351;23;20417;-91
2023/07/02 04:50:32;;;;;;;13.57;9.50;;;;;;;;;;6114677;23;20417;-90
2023/07/02 04:53:00;;;;;;;8.90;8.00;;;;;;;;;;6122918;23;20394;-91
2023/07/02 04:55:29;;;;;;;7.23;6.47;;;;;;;;;;6122840;23;20394;-91
2023/07/02 04:58:01;;;;;;;8.63;6.63;;;;;;;;;;6115510;23;20854;-91
2023/07/02 05:00:31;;;;;;;5.73;3.67;;;20.10;1.00;;;;;;6102619;23;20440;-91
2023/07/02 05:02:59;;;;;;;4.50;4.10;;;;;;;;;;6099971;23;20438;-90
2023/07/02 05:05:27;;;;;;;5.70;4.97;;;18.00;99.90;;;;;;6100369;23;20954;-90
2023/07/02 05:07:55;;;;;;;4.50;4.10;;;;;;;;;;6101438;23;20437;-90
2023/07/02 05:10:25;;;;;;;5.27;3.60;;;17.40;1.00;;;;;;6100272;23;20727;-90
2023/07/02 05:12:55;;;;;;;4.47;4.07;;;;;;;;;;6100067;23;20398;-90
2023/07/02 05:15:26;;;;;;;4.50;4.10;;;;;;;;;;6100264;23;20387;-90
2023/07/02 05:17:55;;;;;;;3.97;3.70;;;18.10;1.00;;;;;;6100169;23;20484;-91
2023/07/02 05:20:47;;;;;;;4.13;3.80;;;17.90;1.00;;;;;;6109541;23;20449;-91
2023/07/02 05:23:15;;;;;;;5.60;4.37;;;;;;;;;;6100718;23;20477;-91
2023/07/02 05:25:42;;;;;;;4.53;4.10;;;;;;;;;;6101337;23;20810;-90
2023/07/02 05:28:10;;;;;;;4.93;4.43;;;;;;;;;;6102479;23;20401;-91
2023/07/02 05:30:37;;;;;;;5.53;4.87;;;;;;;;;;6102619;23;20449;-91
2023/07/02 05:33:06;;;;;;;5.10;3.70;;;18.10;99.90;;;;;;6106510;23;20410;-91
2023/07/02 05:35:36;;;;;;;5.33;4.73;;;18.10;99.90;;;;;;6102828;23;20445;-91
2023/07/02 05:38:03;;;;;;;4.10;3.80;;;;;;;;;;6107357;23;20402;-90
2023/07/02 05:40:30;;;;;;;5.17;4.40;;;;;;;;;;6122988;23;20390;-89
2023/07/02 05:42:59;;;;;;;5.30;4.80;;;;;;;;;;6123638;23;20421;-90
2023/07/02 05:45:28;;;;;;;3.53;3.30;;;18.30;1.00;;;;;;6117699;23;20453;-90
2023/07/02 05:47:56;;;;;;;5.67;3.90;;;;;;;;;;6114333;23;20421;-90
2023/07/02 05:50:25;;;;;;;5.00;3.50;;;18.30;99.90;;;;;;6107761;23;20434;-91
2023/07/02 05:52:57;;;;;;;4.00;3.70;;;18.40;99.90;;;;;;6118078;23;20402;-89
2023/07/02 05:55:30;;;;;;;5.10;3.73;;;18.40;99.90;;;;;;6125183;23;20397;-87
2023/07/02 05:58:04;;;;;;;4.17;3.77;;;18.10;1.00;;;;;;6127195;23;20402;-88
2023/07/02 06:00:31;;;;;;;4.10;3.67;;;;;;;;;;6120347;23;20430;-89
2023/07/02 06:02:58;;;;;;;5.63;4.10;;;18.30;99.90;;;;;;6107180;23;20441;-90
2023/07/02 06:05:30;;;;;;;3.80;3.50;;;18.20;99.90;;;;;;6104905;23;20441;-91
2023/07/02 06:07:57;;;;;;;7.10;4.20;;;;;;;;;;6105080;23;20417;-91
2023/07/02 06:10:24;;;;;;;7.40;6.60;;;;;;;;;;6115336;23;20477;-92
2023/07/02 06:12:52;;;;;;;4.37;3.97;;;18.40;99.90;;;;;;6106125;23;20527;-91
2023/07/02 06:15:19;;;;;;;7.20;4.23;;;;;;;;;;6120992;23;20435;-90
2023/07/02 06:17:46;;;;;;;7.00;5.07;;;;;;;;;;6125843;23;20382;-91
2023/07/02 06:20:14;;;;;;;5.47;3.23;;;18.70;1.00;;;;;;6107950;23;20469;-90
2023/07/02 06:22:42;;;;;;;8.20;3.63;;;19.00;1.00;;;;;;6102955;23;20465;-90
2023/07/02 06:25:10;;;;;;;3.77;3.50;;;19.30;99.90;;;;;;6102125;23;20446;-90
2023/07/02 06:27:37;;;;;;;6.17;3.30;;;;;;;;;;6112568;23;20409;-91
2023/07/02 06:30:11;;;;;;;3.97;3.00;;;19.20;5.50;;;;;;6103485;23;20409;-91
2023/07/02 06:32:47;;;;;;;6.33;4.50;;;19.10;1.00;;;;;;6104666;23;20429;-91
2023/07/02 06:35:15;;;;;;;6.67;3.83;;;;;;;;;;6113639;23;20385;-91
2023/07/02 06:37:47;;;;;;;7.00;3.87;;;19.10;1.00;;;;;;6107951;23;20412;-91
2023/07/02 06:40:15;;;;;;;5.80;3.47;;;;;;;;;;6122722;23;20386;-92
2023/07/02 06:42:42;;;;;;;8.00;3.47;;;;;;;;;;6125637;23;20390;-90
2023/07/02 06:45:12;;;;;;;5.83;3.33;;;18.90;1.00;;;;;;6124477;23;20457;-89
2023/07/02 06:47:40;;;;;;;5.20;4.20;;;;;;;;;;6117633;23;20406;-90
2023/07/02 06:50:10;;;;;;;3.67;3.30;;;18.90;1.00;;;;;;6108214;23;20465;-91
2023/07/02 06:52:37;;;;;;;4.20;3.90;;;18.80;99.90;;;;;;6102972;23;20494;-91
2023/07/02 06:55:06;;;;;;;5.00;4.50;;;19.10;1.00;;;;;;6113919;23;20406;-91
2023/07/02 06:57:33;;;;;;;9.20;4.20;;;;;;;;;;6121963;23;20409;-90
2023/07/02 07:00:00;;;;;;;4.43;3.30;;;;;;;;;;6125753;23;20469;-89
2023/07/02 07:02:31;;;;;;;3.70;3.20;;;;;;;;;;6115552;23;20426;-91
2023/07/02 07:04:58;;;;;;;6.47;3.90;;;19.60;1.00;;;;;;6106803;23;20465;-91
2023/07/02 07:07:25;;;;;;;7.77;3.80;;;;;;;;;;6103370;23;20410;-90
2023/07/02 07:09:52;;;;;;;3.83;3.53;;;19.70;99.90;;;;;;6104231;23;20422;-91
2023/07/02 07:12:21;;;;;;;4.37;3.20;;;19.70;1.00;;;;;;6103403;23;20749;-91
2023/07/02 07:14:49;;;;;;;7.57;4.27;;;;;;;;;;6108507;23;20385;-90
2023/07/02 07:17:16;;;;;;;4.13;3.40;;;;;;;;;;6122001;23;20405;-90
2023/07/02 07:19:43;;;;;;;4.97;4.10;;;19.50;1.00;;;;;;6113394;23;20406;-90
2023/07/02 07:22:12;;;;;;;5.40;3.33;;;19.60;1.00;;;;;;6103016;23;20955;-90
2023/07/02 07:24:39;;;;;;;4.87;3.30;;;;;;;;;;6102191;23;21004;-90
2023/07/02 07:27:07;;;;;;;4.93;3.60;;;;;;;;;;6106695;23;20747;-91
2023/07/02 07:29:36;;;;;;;6.00;3.60;;;18.80;1.00;;;;;;6112479;23;20930;-91
2023/07/02 07:32:07;;;;;;;4.83;3.73;;;19.60;1.00;;;;;;6113380;23;20434;-91
2023/07/02 07:34:35;;;;;;;3.47;2.80;;;19.20;1.00;;;;;;6109847;23;20454;-91
2023/07/02 07:37:07;;;;;;;4.47;3.20;;;19.20;99.90;;;;;;6110689;23;20497;-92
2023/07/02 07:39:34;;;;;;;5.07;3.57;;;19.40;1.00;;;;;;6105337;23;20489;-92
2023/07/02 07:42:01;;;;;;;5.30;4.23;;;;;;;;;;6103830;23;20426;-92
2023/07/02 07:44:29;;;;;;;3.33;3.03;;;;;;;;;;6104083;23;20518;-91
2023/07/02 07:46:57;;;;;;;6.63;4.17;;;20.00;1.00;;;;;;6106488;23;20424;-91
2023/07/02 07:49:24;;;;;;;5.93;3.50;;;20.00;1.00;;;;;;6114293;23;20445;-92
2023/07/02 07:51:52;;;;;;;7.63;4.10;;;;;;;;;;6105373;23;20418;-91
2023/07/02 07:54:19;;;;;;;4.82;3.13;;;;;;;;;;6107620;23;20432;-91
2023/07/02 07:56:49;;;;;;;4.53;3.10;;;;;;;;;;6125067;23;20159;-89
2023/07/02 07:59:16;;;;;;;4.90;3.50;;;19.30;1.00;;;;;;6125674;23;20394;-88
2023/07/02 08:01:44;;;;;;;3.70;3.00;;;;;;;;;;6125324;23;20430;-88
2023/07/02 08:04:13;;;;;;;3.97;3.67;;;19.40;1.00;;;;;;6123686;23;20410;-90
2023/07/02 08:06:40;;;;;;;4.60;3.97;;;;;;;;;;6120182;23;20406;-91
2023/07/02 08:09:13;;;;;;;3.50;3.20;;;18.80;98.90;;;;;;6115172;23;20414;-90
2023/07/02 08:11:42;;;;;;;6.00;3.77;;;19.70;1.00;;;;;;6104702;23;20521;-90
2023/07/02 08:14:10;;;;;;;3.97;3.67;;;;;;;;;;6103643;23;20414;-91
2023/07/02 08:16:37;;;;;;;3.47;3.27;;;;;;;;;;6103609;23;20410;-91
2023/07/02 08:19:04;;;;;;;5.20;4.37;;;19.10;1.00;;;;;;6102156;23;20489;-91
2023/07/02 08:21:32;;;;;;;6.70;3.13;;;19.00;1.00;;;;;;6103141;23;20795;-91
2023/07/02 08:23:59;;;;;;;3.90;3.50;;;;;;;;;;6102785;23;20418;-91
2023/07/02 08:26:27;;;;;;;5.40;4.47;;;;;;;;;;6101952;23;20447;-91
2023/07/02 08:28:54;;;;;;;5.60;5.20;;;;;;;;;;6108914;23;20425;-90
2023/07/02 08:31:21;;;;;;;4.27;3.97;;;;;;;;;;6102422;23;20438;-91
2023/07/02 08:33:48;;;;;;;5.37;4.00;;;;;;;;;;6104464;23;20430;-91
2023/07/02 08:36:21;;;;;;;4.40;3.50;;;18.80;1.00;;;;;;6105284;23;20382;-91
2023/07/02 08:38:56;;;;;;;4.60;4.20;;;18.80;1.00;;;;;;6116510;23;20438;-91
2023/07/02 08:41:25;;;;;;;5.90;4.27;;;;;;;;;;6107324;23;20437;-91
2023/07/02 08:43:54;;;;;;;7.63;5.10;;;;;;;;;;6103205;23;20477;-90
2023/07/02 08:46:24;;;;;;;9.20;4.93;;;18.60;1.00;;;;;;6103601;23;20434;-90
2023/07/02 08:48:52;;;;;;;9.27;4.90;;;;;;;;;;6102844;23;20414;-90
2023/07/02 08:51:22;;;;;;;6.20;4.07;;;;;;;;;;6114532;23;20434;-88
2023/07/02 08:53:52;;;;;;;8.30;5.07;;;18.80;1.00;;;;;;6103570;23;20457;-90
2023/07/02 08:56:19;;;;;;;6.77;6.00;;;;;;;;;;6102117;23;20414;-90
2023/07/02 08:58:46;;;;;;;5.17;4.70;;;;;;;;;;6103428;23;20410;-90
2023/07/02 09:01:15;;;;;;;4.50;3.73;;;18.70;1.00;;;;;;6106946;23;20450;-90
2023/07/02 09:03:42;;;;;;;7.67;6.20;;;;;;;;;;6107622;23;20595;-90
2023/07/02 09:06:11;;;;;;;5.37;4.00;;;18.80;1.00;;;;;;6105947;23;20525;-90
2023/07/02 09:08:38;;;;;;;6.47;3.80;;;18.80;1.00;;;;;;6101548;23;20405;-90
2023/07/02 09:11:11;;;;;;;3.63;3.33;;;18.80;1.00;;;;;;6110121;23;20489;-90
2023/07/02 09:13:46;;;;;;;4.47;4.07;;;18.90;1.00;;;;;;6101953;23;20950;-90
2023/07/02 09:16:26;;;;;;;5.47;4.00;;;18.90;1.00;;;;;;6104749;23;20473;-90
2023/07/02 09:18:58;;;;;;;4.70;3.97;;;19.30;1.00;;;;;;6108509;23;20417;-92
2023/07/02 09:21:27;;;;;;;6.97;5.00;;;19.10;1.00;;;;;;6107255;23;20525;-91
2023/07/02 09:23:54;;;;;;;6.93;5.43;;;19.20;17.50;;;;;;6109901;23;20406;-90
2023/07/02 09:26:23;;;;;;;8.10;7.10;;;19.30;1.00;;;;;;6114404;23;20429;-90
2023/07/02 09:29:02;;;;;;;11.93;6.30;;;19.40;1.00;;;;;;6109864;23;20390;-91
2023/07/02 09:31:29;;;;;;;6.00;4.70;;;;;;;;;;6112181;23;20525;-91
2023/07/02 09:34:02;;;;;;;11.10;6.40;;;19.40;1.00;;;;;;6107317;23;20413;-90
2023/07/02 09:36:29;;;;;;;6.10;5.30;;;19.50;1.00;;;;;;6104448;23;20402;-91
2023/07/02 09:38:56;;;;;;;6.20;4.83;;;;;;;;;;6103048;23;20501;-91
2023/07/02 09:41:25;;;;;;;7.10;4.97;;;19.70;1.00;;;;;;6107472;23;20426;-91
2023/07/02 09:43:52;;;;;;;5.60;4.63;;;;;;;;;;6117894;23;20414;-91
2023/07/02 09:46:21;;;;;;;7.53;4.87;;;;;;;;;;6120761;23;20432;-91
2023/07/02 09:48:51;;;;;;;5.33;4.63;;;19.50;1.00;;;;;;6116926;23;20421;-90
2023/07/02 09:51:18;;;;;;;7.93;4.73;;;;;;;;;;6112546;23;20430;-91
2023/07/02 09:53:45;;;;;;;5.20;4.70;;;;;;;;;;6111634;23;20449;-90
2023/07/02 09:56:12;;;;;;;6.93;4.97;;;19.90;1.00;;;;;;6108923;23;20444;-90
2023/07/02 09:58:42;;;;;;;7.53;6.07;;;19.80;1.00;;;;;;6109196;23;20417;-91
2023/07/02 10:01:09;;;;;;;8.50;5.00;;;;;;;;;;6113312;23;20446;-89
2023/07/02 10:03:36;;;;;;;9.57;5.97;;;;;;;;;;6125196;23;20386;-89
2023/07/02 10:06:04;;;;;;;6.43;4.73;;;;;;;;;;6124775;23;20440;-88
2023/07/02 10:08:32;;;;;;;7.57;5.43;;;;;;;;;;6116949;23;20414;-91
2023/07/02 10:11:08;;;;;;;6.30;5.40;;;19.60;1.00;;;;;;6108450;23;20441;-90
2023/07/02 10:13:36;;;;;;;10.60;5.83;;;;;;;;;;6105829;23;20394;-90
2023/07/02 10:16:04;;;;;;;9.47;5.13;;;19.80;1.00;;;;;;6106744;23;20421;-91
2023/07/02 10:18:31;;;;;;;7.43;5.33;;;20.00;14.30;;;;;;6103039;23;20413;-91
2023/07/02 10:20:59;;;;;;;7.63;5.13;;;;;;;;;;6106069;23;20445;-92
2023/07/02 10:23:35;;;;;;;7.13;5.10;;;20.10;1.00;;;;;;6101970;23;20917;-90
2023/07/02 10:26:11;;;;;;;6.40;4.90;;;20.40;1.00;;;;;;6115985;23;20429;-89
2023/07/02 10:28:44;;;;;;;8.77;6.07;;;;;;;;;;6112695;23;20394;-92
2023/07/02 10:31:22;;;;;;;9.57;5.17;;;20.40;20.10;;;;;;6112324;23;20429;-91
2023/07/02 10:33:51;;;;;;;8.80;6.50;;;20.30;1.00;;;;;;6113129;23;20405;-91
2023/07/02 10:36:22;;;;;;;10.73;6.50;;;20.50;1.00;;;;;;6109499;23;20712;-90
2023/07/02 10:38:49;;;;;;;11.80;6.60;;;;;;;;;;6104705;23;20449;-90
2023/07/02 10:41:30;;;;;;;9.93;5.90;;;20.80;1.00;;;;;;6118337;23;20442;-91
2023/07/02 10:44:06;;;;;;;8.53;6.37;;;20.90;1.00;;;;;;6118417;23;20447;-91
2023/07/02 10:46:35;;;;;;;10.67;6.00;;;21.00;1.00;;;;;;6107563;23;20505;-90
2023/07/02 10:49:02;;;;;;;8.70;5.60;;;21.10;1.00;;;;;;6105983;23;20469;-91
2023/07/02 10:51:29;;;;;;;8.30;6.37;;;;;;;;;;6113956;23;20433;-92
2023/07/02 10:54:00;;;;;;;7.00;5.83;;;20.90;1.00;;;;;;6104037;23;20394;-91
2023/07/02 10:56:28;;;;;;;9.90;6.20;;;21.20;1.00;;;;;;6104661;23;20429;-91
2023/07/02 10:58:55;;;;;;;10.93;6.27;;;21.00;1.00;;;;;;6119432;23;20469;-91
2023/07/02 11:01:26;;;;;;;6.70;5.57;;;21.20;1.00;;;;;;6123693;23;20426;-90
2023/07/02 11:04:03;;;;;;;6.70;5.53;;;21.40;1.00;;;;;;6117732;23;20402;-91
2023/07/02 11:06:33;;;;;;;12.80;6.50;;;21.30;1.00;;;;;;6116886;23;20448;-92
2023/07/02 11:09:01;;;;;;;9.77;6.97;;;21.30;1.00;;;;;;6113924;23;20422;-92
2023/07/02 11:11:28;;;;;;;10.10;6.73;;;;;;;;;;6117212;23;20422;-91
2023/07/02 11:13:57;;;;;;;7.27;5.20;;;;;;;;;;6109642;23;20414;-90
2023/07/02 11:16:26;;;;;;;8.37;5.13;;;21.30;1.00;;;;;;6105201;23;20437;-91
2023/07/02 11:18:54;;;;;;;11.10;6.50;;;;;;;;;;6104866;23;20410;-92
2023/07/02 11:21:23;;;;;;;13.67;6.67;;;21.60;1.00;;;;;;6110529;23;20465;-89
2023/07/02 11:23:50;;;;;;;13.07;6.20;;;;;;;;;;6164363;23;20416;-90
2023/07/02 11:26:36;;;;;;;11.33;6.17;;;21.80;99.90;;;;;;6168258;23;20999;-89
2023/07/02 11:29:02;;;;;;;12.37;6.63;;;22.00;99.90;;;;;;6177254;23;20407;-90
2023/07/02 11:31:29;;;;;;;10.07;6.50;;;22.00;1.00;;;;;;6174586;23;20459;-89
2023/07/02 11:33:56;;;;;;;11.80;6.90;;;22.10;1.00;;;;;;6169259;23;20412;-88
2023/07/02 11:36:25;;;;;;;13.23;7.37;;;21.90;1.00;;;;;;6165366;23;20793;-89
2023/07/02 11:38:53;;;;;;;12.97;7.53;;;;;;;;;;6166077;23;20444;-89
2023/07/02 11:41:22;;;;;;;7.80;6.57;;;21.10;1.00;;;;;;6164918;23;20825;-90
2023/07/02 11:43:55;;;;;;;10.53;7.60;;;21.20;1.00;;;;;;6164830;23;20749;-90
2023/07/02 11:46:22;;;;;;;14.43;7.57;;;20.90;1.00;;;;;;6172235;23;20444;-90
2023/07/02 11:48:52;;;;;;;12.63;6.90;;;20.90;1.00;;;;;;6181286;23;20397;-90
2023/07/02 11:51:20;;;;;;;10.70;6.43;;;20.90;1.00;;;;;;6183773;23;20412;-88
2023/07/02 11:53:48;;;;;;;13.23;6.20;;;21.00;1.00;;;;;;6184254;23;20393;-87
2023/07/02 11:56:18;;;;;;;13.27;6.80;;;21.10;1.00;;;;;;6184715;23;20411;-88
2023/07/02 11:58:45;;;;;;;9.97;5.77;;;21.10;99.90;;;;;;6183670;23;20408;-87
2023/07/02 12:01:12;;;;;;;10.50;7.57;;;21.00;1.00;;;;;;6184852;23;20427;-86
2023/07/02 12:03:39;;;;;;;10.57;6.63;;;20.90;99.90;;;;;;6184615;23;20391;-88
2023/07/02 12:06:06;;;;;;;11.13;5.70;;;;;;;;;;6170834;23;20567;-90
2023/07/02 12:08:33;;;;;;;8.90;6.30;;;21.30;99.90;;;;;;6176798;23;20447;-89
2023/07/02 12:11:05;;;;;;;9.20;5.80;;;21.70;1.00;;;;;;6181941;23;20404;-89
2023/07/02 12:13:33;;;;;;;12.73;6.60;;;21.30;99.90;;;;;;6183953;23;20395;-89
2023/07/02 12:16:00;;;;;;;9.20;6.10;;;21.40;99.90;;;;;;6179481;23;20400;-89
2023/07/02 12:18:27;;;;;;;11.53;5.93;;;21.10;1.00;;;;;;6175553;23;20392;-90
2023/07/02 12:20:54;;;;;;;10.67;5.90;;;21.40;1.00;;;;;;6171360;23;20443;-90
2023/07/02 12:23:21;;;;;;;11.13;6.20;;;21.40;99.90;;;;;;6173432;23;20412;-89
2023/07/02 12:25:54;;;;;;;14.33;6.50;;;21.50;99.90;;;;;;6176144;23;20444;-89
2023/07/02 12:28:22;;;;;;;11.33;6.40;;;21.80;99.90;;;;;;6173946;23;20439;-89
2023/07/02 12:30:49;;;;;;;10.70;6.93;;;;;;;;;;6165811;23;20487;-88
2023/07/02 12:33:16;;;;;;;12.80;7.20;;;21.80;99.90;;;;;;6166460;23;20491;-89
2023/07/02 12:35:43;;;;;;;10.90;6.33;;;21.70;99.90;;;;;;6167331;23;20905;-89
2023/07/02 12:38:10;;;;;;;9.43;6.50;;;21.60;99.90;;;;;;6165146;23;20416;-89
2023/07/02 12:40:48;;;;;;;12.17;6.60;;;21.60;99.90;;;;;;6165932;23;20408;-89
2023/07/02 12:43:19;;;;;;;7.60;6.20;;;21.60;99.90;;;;;;6170635;23;20455;-89
2023/07/02 12:45:47;;;;;;;11.40;5.90;;;21.60;99.90;;;;;;6168842;23;20459;-89
2023/07/02 12:48:17;;;;;;;9.93;6.90;;;21.70;99.90;;;;;;6168288;23;20396;-89
2023/07/02 12:50:54;;;;;;;11.50;6.90;;;21.80;99.90;;;;;;6179212;23;20388;-87
2023/07/02 12:53:25;;;;;;;12.27;7.60;;;21.90;99.90;;;;;;6184091;23;20376;-88
2023/07/02 12:55:52;;;;;;;10.70;7.60;;;22.00;1.00;;;;;;6183942;23;20399;-87
2023/07/02 12:58:19;;;;;;;10.30;6.43;;;21.60;1.00;;;;;;6183150;23;20408;-89
2023/07/02 13:00:48;;;;;;;10.40;6.00;;;22.10;99.90;;;;;;6179003;23;20400;-90
2023/07/02 13:03:17;;;;;;;14.67;6.50;;;22.10;99.90;;;;;;6177791;23;20403;-90
2023/07/02 13:05:44;;;;;;;15.30;6.40;;;22.20;99.90;;;;;;6177608;23;20425;-89
2023/07/02 13:08:11;;;;;;;8.10;6.10;;;22.20;99.90;;;;;;6176031;23;20420;-89
2023/07/02 13:10:46;;;;;;;11.83;7.10;;;22.30;99.90;;;;;;6181952;23;20400;-88
2023/07/02 13:13:13;;;;;;;12.03;6.80;;;22.20;99.90;;;;;;6180276;23;20423;-89
2023/07/02 13:15:40;;;;;;;13.43;7.10;;;;;;;;;;6183158;23;20384;-89
2023/07/02 13:18:08;;;;;;;16.83;8.60;;;21.90;99.90;;;;;;6183743;23;20444;-88
2023/07/02 13:20:36;;;;;;;14.80;8.03;;;;;;;;;;6184173;23;20423;-87
2023/07/02 13:23:04;;;;;;;18.13;11.60;;;21.80;99.90;;;;;;6183101;23;20443;-87
2023/07/02 13:25:31;;;;;;;8.33;6.57;;;21.80;99.90;;;;;;6175373;23;20435;-88
2023/07/02 13:27:58;;;;;;;14.50;8.07;;;21.90;99.90;;;;;;6169529;23;20440;-89
2023/07/02 13:30:27;;;;;;;10.10;7.50;;;;;;;;;;6169231;23;20448;-89
2023/07/02 13:32:54;;;;;;;15.70;8.43;;;;;;;;;;6170567;23;20440;-87
2023/07/02 13:35:31;;;;;;;9.20;6.80;;;21.70;1.00;;;;;;6179758;23;20440;-88
2023/07/02 13:37:59;;;;;;;10.27;7.20;;;;;;;;;;6183107;23;20376;-85
2023/07/02 13:40:36;;;;;;;;;;;;;;;;;;;;;